Time;durP1;ratioP1;P1;durP2;ratioP2;P2;SDS_P1;SDS_P2;PMS_P1;PMS_P2;Temp;Humidity;BMP_temperature;BMP_pressure;BME280_temperature;BME280_humidity;BME280_pressure;Samples;Min_cycle;Max_cycle;Signal;HPM_P1;HPM_P2
2023/03/16 00:02:25;;;;;;;;;;;;;;;1.28;66.48;99754.63;5095409;28;20281;-64
2023/03/16 00:04:54;;;;;;;;;;;;;;;1.25;66.73;99754.50;5095176;28;19927;-64
2023/03/16 00:07:23;;;;;;;;;;;;;;;1.20;66.94;99753.47;5095326;28;19955;-64
2023/03/16 00:09:53;;;;;;;;;;;;;;;1.23;66.60;99747.69;5095018;28;19920;-64
2023/03/16 00:12:22;;;;;;;;;;;;;;;1.22;67.07;99753.56;5095863;28;19920;-64
2023/03/16 00:14:53;;;;;;;;;;;;;;;1.23;67.28;99752.72;5094757;28;19920;-64
2023/03/16 00:17:21;;;;;;;;;;;;;;;1.33;67.09;99748.13;5094827;28;19923;-64
2023/03/16 00:19:53;;;;;;;;;;;;;;;1.40;67.60;99759.25;5094861;28;19951;-64
2023/03/16 00:22:23;;;;;;;;;;;;;;;1.46;67.72;99763.66;5094902;28;19929;-64
2023/03/16 00:24:52;;;;;;;;;;;;;;;1.52;67.67;99758.81;5094646;28;19920;-64
2023/03/16 00:27:21;;;;;;;;;;;;;;;1.54;67.73;99762.25;5095253;28;19927;-64
2023/03/16 00:29:54;;;;;;;;;;;;;;;1.55;67.38;99761.47;5094970;28;19963;-65
2023/03/16 00:32:25;;;;;;;;;;;;;;;1.59;67.57;99764.13;5093516;28;19920;-64
2023/03/16 00:34:54;;;;;;;;;;;;;;;1.62;67.67;99776.81;5094945;28;19920;-64
2023/03/16 00:37:24;;;;;;;;;;;;;;;1.66;67.88;99772.75;5093358;28;19920;-64
2023/03/16 00:39:54;;;;;;;;;;;;;;;1.67;67.94;99775.34;5095206;28;19920;-63
2023/03/16 00:42:26;;;;;;;;;;;;;;;1.72;67.16;99767.94;5095116;28;19927;-63
2023/03/16 00:44:57;;;;;;;;;;;;;;;1.76;67.55;99767.25;5094064;28;19990;-63
2023/03/16 00:47:27;;;;;;;;;;;;;;;1.80;68.13;99767.41;5094716;28;19924;-64
2023/03/16 00:49:56;;;;;;;;;;;;;;;1.86;67.79;99769.28;5093472;28;19919;-64
2023/03/16 00:52:26;;;;;;;;;;;;;;;1.92;67.76;99770.34;5094671;28;19919;-64
2023/03/16 00:54:55;;;;;;;;;;;;;;;1.93;67.04;99769.56;5093166;28;20366;-64
2023/03/16 00:57:26;;;;;;;;;;;;;;;1.95;67.07;99777.16;5093030;28;20362;-63
2023/03/16 00:59:58;;;;;;;;;;;;;;;2.02;67.00;99772.38;5094232;28;19959;-64
2023/03/16 01:02:27;;;;;;;;;;;;;;;2.11;67.77;99774.38;5094225;28;19927;-64
2023/03/16 01:04:55;;;;;;;;;;;;;;;2.19;66.91;99778.00;5094405;28;20358;-64
2023/03/16 01:07:26;;;;;;;;;;;;;;;2.21;66.78;99776.38;5094470;28;19931;-64
2023/03/16 01:09:54;;;;;;;;;;;;;;;2.23;67.39;99779.78;5094334;28;19985;-64
2023/03/16 01:12:23;;;;;;;;;;;;;;;2.22;66.66;99783.13;5092909;28;19920;-63
2023/03/16 01:14:51;;;;;;;;;;;;;;;2.29;67.61;99784.19;5092843;28;20015;-63
2023/03/16 01:17:22;;;;;;;;;;;;;;;2.30;67.64;99780.88;5092662;28;19967;-63
2023/03/16 01:19:50;;;;;;;;;;;;;;;2.33;67.54;99786.00;5094725;28;19931;-63
2023/03/16 01:22:20;;;;;;;;;;;;;;;2.36;67.67;99789.47;5094661;28;20276;-63
2023/03/16 01:24:49;;;;;;;;;;;;;;;2.37;66.67;99783.66;5093062;28;20390;-63
2023/03/16 01:27:17;;;;;;;;;;;;;;;2.38;67.54;99789.53;5093099;28;19950;-63
2023/03/16 01:29:46;;;;;;;;;;;;;;;2.36;67.71;99781.94;5094068;28;20027;-63
2023/03/16 01:32:14;;;;;;;;;;;;;;;2.39;67.78;99771.09;5092633;28;19920;-63
2023/03/16 01:34:44;;;;;;;;;;;;;;;2.40;67.29;99776.19;5093855;28;19946;-63
2023/03/16 01:37:14;;;;;;;;;;;;;;;2.39;67.69;99782.03;5093896;28;19926;-63
2023/03/16 01:39:53;;;;;;;;;;;;;;;2.31;67.53;99788.47;5094320;28;20019;-63
2023/03/16 01:42:22;;;;;;;;;;;;;;;2.23;68.29;99789.88;5092962;28;20002;-64
2023/03/16 01:44:54;;;;;;;;;;;;;;;2.17;68.25;99797.22;5092604;28;19920;-63
2023/03/16 01:47:27;;;;;;;;;;;;;;;2.14;67.88;99792.06;5094188;28;19924;-63
2023/03/16 01:49:58;;;;;;;;;;;;;;;2.13;68.21;99792.91;5094244;28;19924;-63
2023/03/16 01:52:32;;;;;;;;;;;;;;;2.12;68.79;99791.16;5093739;28;19928;-63
2023/03/16 01:55:03;;;;;;;;;;;;;;;2.15;69.24;99791.28;5092838;28;19977;-64
2023/03/16 01:57:35;;;;;;;;;;;;;;;2.13;69.29;99797.94;5097510;28;19970;-63
2023/03/16 02:00:09;;;;;;;;;;;;;;;2.11;68.98;99804.59;5097518;28;19956;-63
2023/03/16 02:02:55;;;;;;;;;;;;;;;2.18;68.85;99801.47;5098075;28;19993;-63
2023/03/16 02:05:36;;;;;;;;;;;;;;;2.17;69.01;99804.78;5097832;28;20358;-63
2023/03/16 02:08:06;;;;;;;;;;;;;;;2.21;69.52;99809.09;5096320;28;19920;-63
2023/03/16 02:10:36;;;;;;;;;;;;;;;2.28;69.14;99818.56;5097278;28;19927;-64
2023/03/16 02:13:04;;;;;;;;;;;;;;;2.35;69.86;99815.47;5097328;28;19965;-64
2023/03/16 02:15:34;;;;;;;;;;;;;;;2.36;69.91;99814.66;5097269;28;19970;-63
2023/03/16 02:18:04;;;;;;;;;;;;;;;2.39;69.64;99822.34;5097199;28;19927;-64
2023/03/16 02:20:39;;;;;;;;;;;;;;;2.40;70.18;99829.06;5097346;28;20362;-63
2023/03/16 02:23:17;;;;;;;;;;;;;;;2.43;70.15;99833.34;5097411;28;19955;-63
2023/03/16 02:25:53;;;;;;;;;;;;;;;2.42;69.40;99831.66;5097144;28;19927;-63
2023/03/16 02:28:28;;;;;;;;;;;;;;;2.40;70.46;99839.13;5096392;28;20315;-63
2023/03/16 02:30:58;;;;;;;;;;;;;;;2.41;70.53;99835.81;5095898;28;19927;-63
2023/03/16 02:33:29;;;;;;;;;;;;;;;2.39;69.97;99844.13;5096970;28;19920;-63
2023/03/16 02:35:57;;;;;;;;;;;;;;;2.30;70.16;99844.69;5095741;28;19919;-63
2023/03/16 02:38:26;;;;;;;;;;;;;;;2.35;70.83;99845.66;5095901;28;19920;-63
2023/03/16 02:40:58;;;;;;;;;;;;;;;2.37;70.66;99839.06;5095849;28;19942;-63
2023/03/16 02:43:33;;;;;;;;;;;;;;;2.43;70.79;99848.47;5095544;28;19920;-64
2023/03/16 02:46:10;;;;;;;;;;;;;;;2.45;71.26;99845.19;5095578;28;19920;-64
2023/03/16 02:48:43;;;;;;;;;;;;;;;2.55;70.46;99854.78;5096646;28;19920;-64
2023/03/16 02:51:11;;;;;;;;;;;;;;;2.60;70.79;99853.28;5096453;28;19920;-64
2023/03/16 02:53:40;;;;;;;;;;;;;;;2.58;70.73;99854.88;5096484;28;19920;-64
2023/03/16 02:56:08;;;;;;;;;;;;;;;2.56;70.47;99853.97;5095332;28;19952;-64
2023/03/16 02:58:37;;;;;;;;;;;;;;;2.59;70.66;99856.56;5095258;28;19943;-64
2023/03/16 03:01:13;;;;;;;;;;;;;;;2.56;70.77;99864.06;5096423;28;19977;-64
2023/03/16 03:03:42;;;;;;;;;;;;;;;2.51;70.61;99855.47;5095146;28;19924;-64
2023/03/16 03:06:11;;;;;;;;;;;;;;;2.57;70.01;99870.78;5096427;28;19982;-64
2023/03/16 03:08:41;;;;;;;;;;;;;;;2.56;69.88;99871.63;5094921;28;19920;-64
2023/03/16 03:11:10;;;;;;;;;;;;;;;2.56;70.70;99874.13;5095875;28;20445;-64
2023/03/16 03:13:39;;;;;;;;;;;;;;;2.56;69.79;99871.63;5096079;28;20011;-64
2023/03/16 03:16:14;;;;;;;;;;;;;;;2.59;70.57;99881.78;5096127;28;19920;-64
2023/03/16 03:18:43;;;;;;;;;;;;;;;2.59;69.58;99874.22;5095155;28;19963;-64
2023/03/16 03:21:12;;;;;;;;;;;;;;;2.61;69.91;99884.38;5094839;28;20374;-64
2023/03/16 03:23:41;;;;;;;;;;;;;;;2.63;70.16;99883.59;5094751;28;19920;-64
2023/03/16 03:26:09;;;;;;;;;;;;;;;2.66;68.91;99897.97;5094710;28;19947;-64
2023/03/16 03:28:38;;;;;;;;;;;;;;;2.61;68.93;99905.38;5096160;28;19919;-64
2023/03/16 03:31:07;;;;;;;;;;;;;;;2.56;69.31;99904.34;5095495;28;20357;-64
2023/03/16 03:33:37;;;;;;;;;;;;;;;2.49;68.75;99906.59;5094373;28;19920;-64
2023/03/16 03:36:05;;;;;;;;;;;;;;;2.38;68.91;99901.19;5096022;28;19965;-64
2023/03/16 03:38:37;;;;;;;;;;;;;;;2.27;69.66;99907.50;5095713;28;19920;-64
2023/03/16 03:41:07;;;;;;;;;;;;;;;2.18;69.68;99912.22;5095683;28;19959;-64
2023/03/16 03:43:38;;;;;;;;;;;;;;;2.05;69.17;99920.13;5094461;28;19920;-64
2023/03/16 03:46:12;;;;;;;;;;;;;;;1.98;70.16;99923.22;5095757;28;20370;-64
2023/03/16 03:48:43;;;;;;;;;;;;;;;1.86;70.23;99925.28;5094464;28;20015;-64
2023/03/16 03:51:11;;;;;;;;;;;;;;;1.80;69.71;99922.56;5095438;28;19921;-64
2023/03/16 03:53:46;;;;;;;;;;;;;;;1.75;70.13;99927.38;5095866;28;20309;-64
2023/03/16 03:56:14;;;;;;;;;;;;;;;1.70;70.49;99933.91;5095260;28;19927;-64
2023/03/16 03:58:42;;;;;;;;;;;;;;;1.68;70.53;99939.69;5095277;28;19924;-64
2023/03/16 04:01:14;;;;;;;;;;;;;;;1.64;70.28;99935.31;5094452;28;19969;-64
2023/03/16 04:03:45;;;;;;;;;;;;;;;1.61;70.46;99942.78;5094001;28;19930;-64
2023/03/16 04:06:15;;;;;;;;;;;;;;;1.57;70.14;99943.44;5095590;28;19920;-64
2023/03/16 04:08:44;;;;;;;;;;;;;;;1.53;70.18;99942.47;5095035;28;19923;-64
2023/03/16 04:11:16;;;;;;;;;;;;;;;1.49;70.22;99959.91;5094688;28;19924;-64
2023/03/16 04:13:44;;;;;;;;;;;;;;;1.42;70.49;99957.94;5094038;28;19920;-64
2023/03/16 04:16:16;;;;;;;;;;;;;;;1.32;70.92;99962.56;5093714;28;20007;-64
2023/03/16 04:18:49;;;;;;;;;;;;;;;1.33;70.32;99966.81;5094135;28;19969;-64
2023/03/16 04:21:18;;;;;;;;;;;;;;;1.21;71.13;99963.81;5093702;28;19920;-64
2023/03/16 04:23:48;;;;;;;;;;;;;;;1.14;71.39;99961.84;5095770;28;20362;-64
2023/03/16 04:26:18;;;;;;;;;;;;;;;1.16;71.74;99962.75;5093468;28;19920;-64
2023/03/16 04:28:48;;;;;;;;;;;;;;;1.15;71.74;99973.59;5094736;28;19927;-64
2023/03/16 04:31:19;;;;;;;;;;;;;;;1.15;71.51;99963.53;5095038;28;19923;-64
2023/03/16 04:33:53;;;;;;;;;;;;;;;1.15;71.94;99965.22;5094863;28;19955;-64
2023/03/16 04:36:24;;;;;;;;;;;;;;;1.10;71.40;99962.53;5094841;28;20266;-64
2023/03/16 04:38:54;;;;;;;;;;;;;;;1.11;71.82;99970.91;5095194;28;20285;-64
2023/03/16 04:41:24;;;;;;;;;;;;;;;1.05;71.92;99966.50;5094532;28;19924;-64
2023/03/16 04:44:00;;;;;;;;;;;;;;;1.04;71.61;99969.78;5093152;28;19920;-64
2023/03/16 04:46:29;;;;;;;;;;;;;;;1.01;71.76;99964.63;5093237;28;19920;-64
2023/03/16 04:49:03;;;;;;;;;;;;;;;1.02;72.15;99960.47;5093208;28;19926;-65
2023/03/16 04:51:31;;;;;;;;;;;;;;;1.01;72.29;99969.66;5093650;28;19920;-65
2023/03/16 04:54:07;;;;;;;;;;;;;;;0.96;71.96;99967.78;5093105;28;19973;-65
2023/03/16 04:56:40;;;;;;;;;;;;;;;0.92;72.05;99969.28;5094898;28;20247;-65
2023/03/16 04:59:17;;;;;;;;;;;;;;;0.91;71.60;99962.53;5093403;28;20271;-64
2023/03/16 05:01:52;;;;;;;;;;;;;;;0.87;71.92;99969.88;5094243;28;19920;-64
2023/03/16 05:04:23;;;;;;;;;;;;;;;0.81;72.43;99965.47;5093252;28;20459;-64
2023/03/16 05:06:52;;;;;;;;;;;;;;;0.82;71.93;99972.19;5092927;28;19920;-64
2023/03/16 05:09:25;;;;;;;;;;;;;;;0.76;72.23;99976.13;5094177;28;20007;-65
2023/03/16 05:11:54;;;;;;;;;;;;;;;0.75;71.81;99985.28;5093235;28;19951;-65
2023/03/16 05:14:22;;;;;;;;;;;;;;;0.67;72.08;99991.66;5094366;28;20011;-65
2023/03/16 05:17:03;;;;;;;;;;;;;;;0.66;72.99;99985.78;5094035;28;20003;-65
2023/03/16 05:19:34;;;;;;;;;;;;;;;0.70;72.53;99996.78;5094716;28;19926;-65
2023/03/16 05:22:03;;;;;;;;;;;;;;;0.75;72.65;99999.50;5093260;28;19969;-64
2023/03/16 05:24:32;;;;;;;;;;;;;;;0.76;73.15;100001.22;5092826;28;19982;-64
2023/03/16 05:27:02;;;;;;;;;;;;;;;0.76;72.80;100007.13;5092622;28;19926;-64
2023/03/16 05:29:31;;;;;;;;;;;;;;;0.84;73.25;100004.94;5094174;28;19920;-65
2023/03/16 05:31:59;;;;;;;;;;;;;;;0.93;72.76;100008.69;5096882;28;20011;-65
2023/03/16 05:34:30;;;;;;;;;;;;;;;1.00;73.19;100012.31;5098237;28;20285;-64
2023/03/16 05:37:00;;;;;;;;;;;;;;;1.09;73.06;100017.72;5097077;28;19928;-64
2023/03/16 05:39:29;;;;;;;;;;;;;;;1.11;73.19;100017.00;5096676;28;20423;-64
2023/03/16 05:41:58;;;;;;;;;;;;;;;1.17;72.55;100032.34;5097359;28;19920;-64
2023/03/16 05:44:38;;;;;;;;;;;;;;;1.17;72.73;100036.50;5097878;28;19920;-65
2023/03/16 05:47:15;;;;;;;;;;;;;;;1.22;72.73;100030.84;5097045;28;19920;-64
2023/03/16 05:49:47;;;;;;;;;;;;;;;1.23;72.12;100037.63;5097741;28;19920;-64
2023/03/16 05:52:28;;;;;;;;;;;;;;;1.27;72.29;100034.44;5097642;28;19927;-64
2023/03/16 05:54:59;;;;;;;;;;;;;;;1.38;72.84;100036.53;5097020;28;20377;-64
2023/03/16 05:57:28;;;;;;;;;;;;;;;1.56;72.39;100047.34;5096338;28;19926;-64
2023/03/16 06:00:00;;;;;;;;;;;;;;;1.72;71.70;100049.69;5097560;28;19919;-64
2023/03/16 06:02:39;;;;;;;;;;;;;;;1.81;71.43;100047.53;5097429;28;19962;-65
2023/03/16 06:05:09;;;;;;;;;;;;;;;1.79;71.41;100051.66;5096216;28;19928;-64
2023/03/16 06:07:43;;;;;;;;;;;;;;;1.77;71.60;100055.75;5097549;28;19920;-64
2023/03/16 06:10:12;;;;;;;;;;;;;;;1.84;71.94;100057.72;5096469;28;19927;-64
2023/03/16 06:12:41;;;;;;;;;;;;;;;1.94;71.38;100063.16;5096055;28;19920;-64
2023/03/16 06:15:10;;;;;;;;;;;;;;;1.93;71.37;100065.63;5096038;28;19966;-64
2023/03/16 06:17:39;;;;;;;;;;;;;;;1.93;71.51;100065.63;5095693;28;20002;-64
2023/03/16 06:20:10;;;;;;;;;;;;;;;1.98;71.01;100064.16;5097169;28;19927;-64
2023/03/16 06:22:44;;;;;;;;;;;;;;;2.01;70.61;100071.84;5097131;28;19920;-64
2023/03/16 06:25:14;;;;;;;;;;;;;;;1.96;71.02;100079.19;5095990;28;19927;-64
2023/03/16 06:27:44;;;;;;;;;;;;;;;2.05;71.08;100081.22;5095839;28;19920;-64
2023/03/16 06:30:17;;;;;;;;;;;;;;;2.06;70.41;100085.47;5097038;28;19959;-64
2023/03/16 06:32:45;;;;;;;;;;;;;;;2.12;71.27;100088.19;5095931;28;19920;-64
2023/03/16 06:35:15;;;;;;;;;;;;;;;2.27;70.91;100088.81;5096801;28;19920;-64
2023/03/16 06:38:01;;;;;;;;;;;;;;;2.42;70.83;100084.34;5096957;28;20381;-65
2023/03/16 06:40:51;;;;;;;;;;;;;;;2.75;70.38;100093.97;5096884;28;19920;-64
2023/03/16 06:43:21;;;;;;;;;;;;;;;3.13;69.84;100101.22;5096042;28;19955;-65
2023/03/16 06:45:51;;;;;;;;;;;;;;;3.35;69.28;100102.06;5097254;28;19920;-64
2023/03/16 06:48:20;;;;;;;;;;;;;;;3.50;69.44;100106.75;5096047;28;19924;-64
2023/03/16 06:50:49;;;;;;;;;;;;;;;3.74;68.50;100112.59;5095267;28;19969;-64
2023/03/16 06:53:24;;;;;;;;;;;;;;;4.13;67.86;100112.22;5096377;28;19927;-64
2023/03/16 06:55:54;;;;;;;;;;;;;;;4.33;67.47;100121.25;5096561;28;19926;-64
2023/03/16 06:58:23;;;;;;;;;;;;;;;4.56;66.83;100117.75;5095589;28;19943;-64
2023/03/16 07:00:52;;;;;;;;;;;;;;;4.71;66.20;100118.22;5096380;28;20015;-64
2023/03/16 07:03:21;;;;;;;;;;;;;;;4.90;65.04;100117.94;5096192;28;19927;-64
2023/03/16 07:05:56;;;;;;;;;;;;;;;5.06;64.37;100115.00;5096299;28;19927;-64
2023/03/16 07:08:26;;;;;;;;;;;;;;;5.27;63.20;100125.75;5095059;28;19920;-64
2023/03/16 07:10:54;;;;;;;;;;;;;;;5.39;62.46;100130.28;5096565;28;20338;-64
2023/03/16 07:13:23;;;;;;;;;;;;;;;5.50;61.38;100133.06;5096040;28;19920;-64
2023/03/16 07:15:51;;;;;;;;;;;;;;;5.52;60.73;100132.31;5096455;28;19919;-65
2023/03/16 07:18:24;;;;;;;;;;;;;;;5.56;59.92;100138.31;5096025;28;19920;-64
2023/03/16 07:20:54;;;;;;;;;;;;;;;5.63;59.21;100127.53;5095121;28;19920;-64
2023/03/16 07:23:27;;;;;;;;;;;;;;;5.75;59.30;100135.44;5096271;28;20277;-64
2023/03/16 07:26:02;;;;;;;;;;;;;;;5.97;59.52;100137.75;5095870;28;19919;-64
2023/03/16 07:28:33;;;;;;;;;;;;;;;6.17;58.60;100140.78;5094760;28;19924;-64
2023/03/16 07:31:03;;;;;;;;;;;;;;;6.21;57.50;100143.41;5095316;28;19986;-64
2023/03/16 07:33:38;;;;;;;;;;;;;;;6.36;57.28;100146.28;5095753;28;19967;-64
2023/03/16 07:36:11;;;;;;;;;;;;;;;6.50;56.58;100157.59;5095669;28;20378;-64
2023/03/16 07:38:47;;;;;;;;;;;;;;;6.54;56.24;100158.53;5095937;28;19955;-64
2023/03/16 07:41:15;;;;;;;;;;;;;;;6.55;55.52;100153.50;5095721;28;19927;-64
2023/03/16 07:43:44;;;;;;;;;;;;;;;6.50;54.33;100157.59;5094281;28;20019;-64
2023/03/16 07:46:15;;;;;;;;;;;;;;;6.69;54.07;100151.28;5095597;28;19920;-64
2023/03/16 07:48:44;;;;;;;;;;;;;;;6.90;54.61;100150.88;5094228;28;19923;-65
2023/03/16 07:51:14;;;;;;;;;;;;;;;6.81;54.19;100160.84;5094185;28;19942;-64
2023/03/16 07:53:49;;;;;;;;;;;;;;;6.68;53.80;100158.03;5094308;28;19924;-64
2023/03/16 07:56:27;;;;;;;;;;;;;;;6.59;52.83;100162.91;5095008;28;20424;-64
2023/03/16 07:59:08;;;;;;;;;;;;;;;6.50;51.46;100156.78;5096902;28;20373;-64
2023/03/16 08:01:37;;;;;;;;;;;;;;;6.61;50.83;100155.31;5095539;28;19920;-64
2023/03/16 08:04:06;;;;;;;;;;;;;;;6.52;50.58;100166.13;5095441;28;20304;-64
2023/03/16 08:06:34;;;;;;;;;;;;;;;6.31;49.88;100165.59;5094133;28;19924;-64
2023/03/16 08:09:04;;;;;;;;;;;;;;;6.17;49.70;100169.47;5093697;28;19965;-64
2023/03/16 08:11:36;;;;;;;;;;;;;;;6.16;49.24;100169.44;5094135;28;19969;-64
2023/03/16 08:14:06;;;;;;;;;;;;;;;6.14;49.30;100159.28;5095456;28;19920;-64
2023/03/16 08:16:46;;;;;;;;;;;;;;;6.14;49.19;100161.81;5095209;28;20374;-64
2023/03/16 08:19:16;;;;;;;;;;;;;;;6.16;49.09;100162.72;5094688;28;19999;-63
2023/03/16 08:21:45;;;;;;;;;;;;;;;6.10;49.26;100160.00;5093803;28;19919;-64
2023/03/16 08:24:37;;;;;;;;;;;;;;;5.92;49.60;100169.69;5076761;28;20357;-64
2023/03/16 08:27:08;;;;;;;;;;;;;;;5.96;50.06;100167.28;5093610;28;19920;-64
2023/03/16 08:29:40;;;;;;;;;;;;;;;6.07;50.08;100175.13;5094726;28;19930;-64
2023/03/16 08:32:13;;;;;;;;;;;;;;;6.31;49.57;100173.19;5095170;28;20271;-63
2023/03/16 08:34:44;;;;;;;;;;;;;;;6.57;49.60;100169.63;5098659;28;19959;-64
2023/03/16 08:37:15;;;;;;;;;;;;;;;6.81;47.98;100168.44;5093661;28;20366;-64
2023/03/16 08:39:50;;;;;;;;;;;;;;;6.61;46.43;100176.47;5076843;28;19920;-64
2023/03/16 08:42:19;;;;;;;;;;;;;;;6.64;46.68;100166.41;5093694;28;19962;-64
2023/03/16 08:44:54;;;;;;;;;;;;;;;6.74;46.56;100170.84;5094771;28;20022;-64
2023/03/16 08:47:25;;;;;;;;;;;;;;;6.89;46.58;100172.84;5095787;28;20283;-65
2023/03/16 08:49:54;;;;;;;;;;;;;;;7.00;45.60;100165.47;5094345;28;19920;-63
2023/03/16 08:52:23;;;;;;;;;;;;;;;7.30;45.66;100161.88;5094231;28;19920;-64
2023/03/16 08:54:54;;;;;;;;;;;;;;;7.34;45.61;100162.81;5094034;28;19920;-63
2023/03/16 08:57:31;;;;;;;;;;;;;;;7.44;44.93;100167.22;5094189;28;19924;-63
2023/03/16 09:00:00;;;;;;;;;;;;;;;7.57;44.43;100165.78;5094608;28;19924;-63
2023/03/16 09:02:28;;;;;;;;;;;;;;;7.70;44.10;100168.56;5092972;28;19919;-63
2023/03/16 09:04:57;;;;;;;;;;;;;;;7.78;43.58;100168.72;5094003;28;19947;-64
2023/03/16 09:07:27;;;;;;;;;;;;;;;7.61;43.63;100167.53;5093949;28;19920;-64
2023/03/16 09:09:57;;;;;;;;;;;;;;;7.60;43.63;100171.78;5094064;28;19920;-64
2023/03/16 09:12:26;;;;;;;;;;;;;;;7.76;43.30;100171.25;5103949;28;19920;-64
2023/03/16 09:14:54;;;;;;;;;;;;;;;7.94;42.84;100169.03;5113701;28;19973;-64
2023/03/16 09:17:23;;;;;;;;;;;;;;;7.95;42.58;100170.75;5102308;28;19919;-65
2023/03/16 09:19:51;;;;;;;;;;;;;;;8.20;42.47;100169.47;5097824;28;19924;-64
2023/03/16 09:22:28;;;;;;;;;;;;;;;8.24;42.46;100172.91;5100716;28;19943;-64
2023/03/16 09:24:58;;;;;;;;;;;;;;;8.21;41.20;100178.81;5093704;28;19949;-64
2023/03/16 09:27:27;;;;;;;;;;;;;;;8.43;41.87;100185.13;5093978;28;19920;-65
2023/03/16 09:29:58;;;;;;;;;;;;;;;8.54;40.99;100178.53;5093752;28;19927;-65
2023/03/16 09:32:27;;;;;;;;;;;;;;;8.51;41.11;100183.56;5093156;28;19920;-64
2023/03/16 09:34:56;;;;;;;;;;;;;;;8.58;40.13;100185.38;5093829;28;20369;-66
2023/03/16 09:37:25;;;;;;;;;;;;;;;8.78;40.67;100173.81;5094324;28;19920;-64
2023/03/16 09:39:55;;;;;;;;;;;;;;;8.96;39.99;100179.16;5094085;28;20309;-64
2023/03/16 09:42:38;;;;;;;;;;;;;;;9.15;40.14;100178.56;5093643;28;19920;-64
2023/03/16 09:45:09;;;;;;;;;;;;;;;9.47;40.82;100173.88;5093793;28;19962;-65
2023/03/16 09:47:38;;;;;;;;;;;;;;;9.26;40.04;100179.53;5092902;28;19924;-64
2023/03/16 09:50:09;;;;;;;;;;;;;;;9.35;40.13;100184.75;5093908;28;19920;-65
2023/03/16 09:52:43;;;;;;;;;;;;;;;9.57;40.33;100187.56;5093820;28;19985;-65
2023/03/16 09:55:16;;;;;;;;;;;;;;;9.87;40.51;100185.31;5099451;28;19919;-65
2023/03/16 09:57:46;;;;;;;;;;;;;;;9.84;39.94;100193.78;5096299;28;19920;-65
2023/03/16 10:00:18;;;;;;;;;;;;;;;9.88;40.23;100197.25;5093547;28;19926;-65
2023/03/16 10:02:57;;;;;;;;;;;;;;;10.13;40.41;100204.31;5100303;28;19920;-64
2023/03/16 10:05:27;;;;;;;;;;;;;;;10.14;39.70;100184.78;5099228;28;19942;-65
2023/03/16 10:08:00;;;;;;;;;;;;;;;10.08;39.08;100185.53;5098833;28;19920;-65
2023/03/16 10:10:40;;;;;;;;;;;;;;;10.20;39.06;100183.13;5112366;28;19927;-64
2023/03/16 10:13:17;;;;;;;;;;;;;;;10.42;39.52;100185.00;5113975;28;19920;-65
2023/03/16 10:15:47;;;;;;;;;;;;;;;10.56;39.08;100188.53;5114076;28;19919;-65
2023/03/16 10:18:17;;;;;;;;;;;;;;;10.43;38.83;100196.94;5116761;28;19963;-64
2023/03/16 10:20:46;;;;;;;;;;;;;;;10.58;39.42;100186.84;5101651;28;19943;-64
2023/03/16 10:23:17;;;;;;;;;;;;;;;10.66;38.93;100187.75;5097541;28;19951;-63
2023/03/16 10:25:47;;;;;;;;;;;;;;;10.62;39.10;100180.94;5096976;28;20362;-64
2023/03/16 10:28:21;;;;;;;;;;;;;;;10.63;38.21;100185.19;5111966;28;19942;-64
2023/03/16 10:30:50;;;;;;;;;;;;;;;10.58;38.37;100183.44;5103913;28;19959;-65
2023/03/16 10:33:24;;;;;;;;;;;;;;;10.49;38.43;100186.78;5098205;28;20010;-64
2023/03/16 10:35:57;;;;;;;;;;;;;;;10.32;38.29;100184.94;5105581;28;19920;-64
2023/03/16 10:38:37;;;;;;;;;;;;;;;10.31;38.09;100181.53;5096796;28;19945;-64
2023/03/16 10:41:19;;;;;;;;;;;;;;;10.10;37.18;100183.88;5114650;28;19920;-64
2023/03/16 10:43:50;;;;;;;;;;;;;;;9.98;38.01;100178.66;5117107;28;19919;-64
2023/03/16 10:46:19;;;;;;;;;;;;;;;10.24;38.07;100174.69;5117346;28;19972;-65
2023/03/16 10:48:53;;;;;;;;;;;;;;;10.65;38.62;100178.38;5117029;28;20006;-64
2023/03/16 10:51:24;;;;;;;;;;;;;;;10.84;37.75;100168.28;5116902;28;19924;-66
2023/03/16 10:53:53;;;;;;;;;;;;;;;10.56;37.15;100180.00;5117001;28;19919;-64
2023/03/16 10:56:24;;;;;;;;;;;;;;;10.22;37.53;100114.28;5114565;28;19919;-65
2023/03/16 10:58:55;;;;;;;;;;;;;;;10.57;37.00;100172.38;5106172;28;19966;-65
2023/03/16 11:01:25;;;;;;;;;;;;;;;10.77;36.83;100181.00;5096367;28;20357;-64
2023/03/16 11:03:55;;;;;;;;;;;;;;;10.90;37.03;100175.97;5096801;28;20027;-65
2023/03/16 11:06:29;;;;;;;;;;;;;;;10.73;36.54;100176.75;5096310;28;19927;-65
2023/03/16 11:09:04;;;;;;;;;;;;;;;10.44;35.83;100173.13;5095330;28;20326;-63
2023/03/16 11:11:34;;;;;;;;;;;;;;;10.49;35.85;100168.91;5101551;28;19941;-65
2023/03/16 11:14:04;;;;;;;;;;;;;;;10.50;36.19;100165.53;5101549;28;20353;-64
2023/03/16 11:16:36;;;;;;;;;;;;;;;10.57;35.72;100182.59;5096099;28;19924;-66
2023/03/16 11:19:13;;;;;;;;;;;;;;;10.49;35.34;100184.22;5098126;28;19960;-63
2023/03/16 11:21:48;;;;;;;;;;;;;;;10.50;35.66;100175.75;5095954;28;19931;-64
2023/03/16 11:24:19;;;;;;;;;;;;;;;10.49;35.57;100168.03;5100114;28;19955;-64
2023/03/16 11:26:53;;;;;;;;;;;;;;;10.45;34.99;100181.63;5106353;28;19920;-65
2023/03/16 11:29:27;;;;;;;;;;;;;;;10.24;34.63;100176.38;5115801;28;19969;-65
2023/03/16 11:31:58;;;;;;;;;;;;;;;10.16;35.29;100171.19;5116247;28;20361;-62
2023/03/16 11:34:28;;;;;;;;;;;;;;;10.73;36.44;100176.75;5116343;28;19919;-64
2023/03/16 11:37:00;;;;;;;;;;;;;;;10.85;35.43;100170.00;5116154;28;19919;-64
2023/03/16 11:39:39;;;;;;;;;;;;;;;10.71;34.58;100160.56;5116037;28;19920;-64
2023/03/16 11:42:20;;;;;;;;;;;;;;;10.92;35.67;100169.22;5111241;28;19920;-65
2023/03/16 11:44:55;;;;;;;;;;;;;;;11.08;35.01;100160.78;5106787;28;20409;-64
2023/03/16 11:47:42;;;;;;;;;;;;;;;10.75;34.16;100167.38;5100969;28;20006;-65
2023/03/16 11:50:13;;;;;;;;;;;;;;;11.00;34.90;100147.09;5091386;28;20015;-64
2023/03/16 11:52:45;;;;;;;;;;;;;;;11.08;34.55;100159.06;5114383;28;19942;-65
2023/03/16 11:55:23;;;;;;;;;;;;;;;10.99;33.61;100150.50;5115794;28;19920;-64
2023/03/16 11:57:57;;;;;;;;;;;;;;;10.65;33.64;100163.06;5115686;28;19924;-65
2023/03/16 12:00:31;;;;;;;;;;;;;;;10.93;34.40;100155.56;5115664;28;19920;-64
2023/03/16 12:03:16;;;;;;;;;;;;;;;11.05;34.11;100147.97;5115600;28;19919;-64
2023/03/16 12:05:55;;;;;;;;;;;;;;;10.98;33.96;100148.78;5106708;28;20018;-64
2023/03/16 12:08:35;;;;;;;;;;;;;;;11.33;34.43;100142.13;5115484;28;20015;-64
2023/03/16 12:11:06;;;;;;;;;;;;;;;11.13;33.49;100138.66;5111476;28;19967;-64
2023/03/16 12:13:44;;;;;;;;;;;;;;;10.90;34.31;100140.22;5104187;28;19920;-65
2023/03/16 12:16:18;;;;;;;;;;;;;;;10.99;34.22;100150.50;5099876;28;19924;-65
2023/03/16 12:18:49;;;;;;;;;;;;;;;11.31;34.42;100151.50;5094778;28;19920;-64
2023/03/16 12:21:20;;;;;;;;;;;;;;;11.67;34.25;100138.81;5094334;28;19927;-65
2023/03/16 12:23:51;;;;;;;;;;;;;;;11.61;33.30;100138.81;5094846;28;19980;-65
2023/03/16 12:26:21;;;;;;;;;;;;;;;11.65;33.72;100140.53;5094847;28;20314;-64
2023/03/16 12:28:50;;;;;;;;;;;;;;;11.42;32.86;100137.91;5094671;28;19920;-64
2023/03/16 12:31:22;;;;;;;;;;;;;;;11.29;33.13;100141.28;5094638;28;19969;-64
2023/03/16 12:33:58;;;;;;;;;;;;;;;11.02;33.39;100141.16;5094691;28;20022;-65
2023/03/16 12:36:37;;;;;;;;;;;;;;;10.93;33.42;100140.25;5094568;28;19966;-64
2023/03/16 12:39:08;;;;;;;;;;;;;;;10.94;33.43;100129.22;5094188;28;20407;-64
2023/03/16 12:41:41;;;;;;;;;;;;;;;10.95;33.31;100131.75;5095226;28;19927;-64
2023/03/16 12:44:16;;;;;;;;;;;;;;;10.98;33.42;100136.03;5113368;28;20007;-65
2023/03/16 12:46:56;;;;;;;;;;;;;;;11.30;33.10;100131.91;5114746;28;19965;-64
2023/03/16 12:49:27;;;;;;;;;;;;;;;11.54;33.00;100131.97;5114797;28;19920;-64
2023/03/16 12:51:59;;;;;;;;;;;;;;;12.06;33.48;100138.94;5114629;28;19919;-64
2023/03/16 12:54:28;;;;;;;;;;;;;;;12.03;32.95;100135.50;5114744;28;19920;-65
2023/03/16 12:57:00;;;;;;;;;;;;;;;11.70;32.39;100133.75;5114429;28;19924;-64
2023/03/16 12:59:37;;;;;;;;;;;;;;;11.43;32.85;100133.66;5114691;28;19951;-64
2023/03/16 13:02:11;;;;;;;;;;;;;;;11.06;32.36;100134.38;5114614;28;19968;-64
2023/03/16 13:04:42;;;;;;;;;;;;;;;11.03;32.36;100126.69;5114534;28;19920;-64
2023/03/16 13:07:17;;;;;;;;;;;;;;;11.10;32.32;100136.09;5114593;28;19961;-64
2023/03/16 13:09:49;;;;;;;;;;;;;;;11.25;32.28;100131.03;5114400;28;19920;-64
2023/03/16 13:12:29;;;;;;;;;;;;;;;11.31;32.89;100138.72;5114816;28;19927;-64